sensor_id;sensor_type;location;lat;lon;timestamp;temperature;humidity
32612;DHT22;19030;49.478;8.986;2023-02-08T00:00:39;-2.90;99.90
32612;DHT22;19030;49.478;8.986;2023-02-08T00:02:39;-3.00;99.90
32612;DHT22;19030;49.478;8.986;2023-02-08T00:04:40;-2.90;99.90
32612;DHT22;19030;49.478;8.986;2023-02-08T00:06:41;-2.90;99.90
32612;DHT22;19030;49.478;8.986;2023-02-08T00:08:42;-3.00;99.90
32612;DHT22;19030;49.478;8.986;2023-02-08T00:10:43;-3.00;99.90
32612;DHT22;19030;49.478;8.986;2023-02-08T00:12:44;-3.00;99.90
32612;DHT22;19030;49.478;8.986;2023-02-08T00:14:44;-3.00;99.90
32612;DHT22;19030;49.478;8.986;2023-02-08T00:16:45;-3.00;99.90
32612;DHT22;19030;49.478;8.986;2023-02-08T00:18:45;-3.00;99.90
32612;DHT22;19030;49.478;8.986;2023-02-08T00:20:46;-3.10;99.90
32612;DHT22;19030;49.478;8.986;2023-02-08T00:22:47;-3.10;99.90
32612;DHT22;19030;49.478;8.986;2023-02-08T00:24:49;-3.10;99.90
32612;DHT22;19030;49.478;8.986;2023-02-08T00:26:50;-3.10;99.90
32612;DHT22;19030;49.478;8.986;2023-02-08T00:28:51;-3.10;99.90
32612;DHT22;19030;49.478;8.986;2023-02-08T00:30:51;-3.20;99.90
32612;DHT22;19030;49.478;8.986;2023-02-08T00:32:52;-3.10;99.90
32612;DHT22;19030;49.478;8.986;2023-02-08T00:34:53;-3.10;99.90
32612;DHT22;19030;49.478;8.986;2023-02-08T00:36:53;-3.20;99.90
32612;DHT22;19030;49.478;8.986;2023-02-08T00:38:54;-3.20;99.90
32612;DHT22;19030;49.478;8.986;2023-02-08T00:40:55;-3.20;99.90
32612;DHT22;19030;49.478;8.986;2023-02-08T00:42:55;-3.20;99.90
32612;DHT22;19030;49.478;8.986;2023-02-08T00:44:56;-3.20;99.90
32612;DHT22;19030;49.478;8.986;2023-02-08T00:46:57;-3.20;99.90
32612;DHT22;19030;49.478;8.986;2023-02-08T00:48:57;-3.20;99.90
32612;DHT22;19030;49.478;8.986;2023-02-08T00:51:17;-3.30;99.90
32612;DHT22;19030;49.478;8.986;2023-02-08T00:53:17;-3.30;99.90
32612;DHT22;19030;49.478;8.986;2023-02-08T00:55:18;-3.30;99.90
32612;DHT22;19030;49.478;8.986;2023-02-08T00:57:18;-3.30;99.90
32612;DHT22;19030;49.478;8.986;2023-02-08T00:59:19;-3.30;99.90
32612;DHT22;19030;49.478;8.986;2023-02-08T01:01:19;-3.40;99.90
32612;DHT22;19030;49.478;8.986;2023-02-08T01:03:21;-3.40;99.90
32612;DHT22;19030;49.478;8.986;2023-02-08T01:05:22;-3.40;99.90
32612;DHT22;19030;49.478;8.986;2023-02-08T01:07:23;-3.50;99.90
32612;DHT22;19030;49.478;8.986;2023-02-08T01:09:24;-3.50;99.90
32612;DHT22;19030;49.478;8.986;2023-02-08T01:11:25;-3.50;99.90
32612;DHT22;19030;49.478;8.986;2023-02-08T01:13:26;-3.50;99.90
32612;DHT22;19030;49.478;8.986;2023-02-08T01:15:26;-3.50;99.90
32612;DHT22;19030;49.478;8.986;2023-02-08T01:17:27;-3.50;99.90
32612;DHT22;19030;49.478;8.986;2023-02-08T01:19:27;-3.50;99.90
32612;DHT22;19030;49.478;8.986;2023-02-08T01:21:31;-3.50;99.90
32612;DHT22;19030;49.478;8.986;2023-02-08T01:23:32;-3.50;99.90
32612;DHT22;19030;49.478;8.986;2023-02-08T01:25:33;-3.50;99.90
32612;DHT22;19030;49.478;8.986;2023-02-08T01:27:33;-3.50;99.90
32612;DHT22;19030;49.478;8.986;2023-02-08T01:29:34;-3.50;99.90
32612;DHT22;19030;49.478;8.986;2023-02-08T01:31:39;-3.50;99.90
32612;DHT22;19030;49.478;8.986;2023-02-08T01:33:40;-3.60;99.90
32612;DHT22;19030;49.478;8.986;2023-02-08T01:35:41;-3.50;99.90
32612;DHT22;19030;49.478;8.986;2023-02-08T01:37:42;-3.60;99.90
32612;DHT22;19030;49.478;8.986;2023-02-08T01:39:43;-3.60;99.90
32612;DHT22;19030;49.478;8.986;2023-02-08T01:41:44;-3.60;99.90
32612;DHT22;19030;49.478;8.986;2023-02-08T01:44:07;-3.60;99.90
32612;DHT22;19030;49.478;8.986;2023-02-08T01:46:08;-3.60;99.90
32612;DHT22;19030;49.478;8.986;2023-02-08T01:48:14;-3.60;99.90
32612;DHT22;19030;49.478;8.986;2023-02-08T01:50:19;-3.60;99.90
32612;DHT22;19030;49.478;8.986;2023-02-08T01:52:24;-3.60;99.90
32612;DHT22;19030;49.478;8.986;2023-02-08T01:54:29;-3.60;99.90
32612;DHT22;19030;49.478;8.986;2023-02-08T01:56:34;-3.60;99.90
32612;DHT22;19030;49.478;8.986;2023-02-08T01:58:38;-3.60;99.90
32612;DHT22;19030;49.478;8.986;2023-02-08T02:00:39;-3.70;99.90
32612;DHT22;19030;49.478;8.986;2023-02-08T02:02:41;-3.60;99.90
32612;DHT22;19030;49.478;8.986;2023-02-08T02:04:43;-3.70;99.90
32612;DHT22;19030;49.478;8.986;2023-02-08T02:06:46;-3.70;99.90
32612;DHT22;19030;49.478;8.986;2023-02-08T02:09:06;-3.70;99.90
32612;DHT22;19030;49.478;8.986;2023-02-08T02:11:07;-3.70;99.90
32612;DHT22;19030;49.478;8.986;2023-02-08T02:13:14;-3.70;99.90
32612;DHT22;19030;49.478;8.986;2023-02-08T02:15:17;-3.80;99.90
32612;DHT22;19030;49.478;8.986;2023-02-08T02:17:18;-3.80;99.90
32612;DHT22;19030;49.478;8.986;2023-02-08T02:19:40;-3.80;99.90
32612;DHT22;19030;49.478;8.986;2023-02-08T02:28:54;-3.90;99.90
32612;DHT22;19030;49.478;8.986;2023-02-08T02:33:41;-3.90;99.90
32612;DHT22;19030;49.478;8.986;2023-02-08T02:35:56;-3.90;99.90
32612;DHT22;19030;49.478;8.986;2023-02-08T02:40:57;-3.90;99.90
32612;DHT22;19030;49.478;8.986;2023-02-08T02:48:09;-4.00;99.90
32612;DHT22;19030;49.478;8.986;2023-02-08T02:52:44;-4.00;99.90
32612;DHT22;19030;49.478;8.986;2023-02-08T02:54:49;-4.00;99.90
32612;DHT22;19030;49.478;8.986;2023-02-08T02:57:02;-4.00;99.90
32612;DHT22;19030;49.478;8.986;2023-02-08T02:59:07;-4.00;99.90
32612;DHT22;19030;49.478;8.986;2023-02-08T03:01:08;-4.10;99.90
32612;DHT22;19030;49.478;8.986;2023-02-08T03:03:25;-4.10;99.90
32612;DHT22;19030;49.478;8.986;2023-02-08T03:05:27;-4.10;99.90
32612;DHT22;19030;49.478;8.986;2023-02-08T03:07:56;-4.10;99.90
32612;DHT22;19030;49.478;8.986;2023-02-08T03:14:47;-4.10;99.90
32612;DHT22;19030;49.478;8.986;2023-02-08T03:19:17;-4.20;99.90
32612;DHT22;19030;49.478;8.986;2023-02-08T03:22:22;-4.10;99.90
32612;DHT22;19030;49.478;8.986;2023-02-08T03:24:32;-4.10;99.90
32612;DHT22;19030;49.478;8.986;2023-02-08T03:26:44;-4.10;99.90
32612;DHT22;19030;49.478;8.986;2023-02-08T03:28:53;-4.20;99.90
32612;DHT22;19030;49.478;8.986;2023-02-08T03:31:18;-4.20;99.90
32612;DHT22;19030;49.478;8.986;2023-02-08T03:33:29;-4.20;99.90
32612;DHT22;19030;49.478;8.986;2023-02-08T03:35:48;-4.10;99.90
32612;DHT22;19030;49.478;8.986;2023-02-08T03:40:23;-4.20;99.90
32612;DHT22;19030;49.478;8.986;2023-02-08T03:42:26;-4.20;99.90
32612;DHT22;19030;49.478;8.986;2023-02-08T03:44:33;-4.20;99.90
32612;DHT22;19030;49.478;8.986;2023-02-08T03:46:46;-4.20;99.90
32612;DHT22;19030;49.478;8.986;2023-02-08T03:48:53;-4.20;99.90
32612;DHT22;19030;49.478;8.986;2023-02-08T03:50:55;-4.20;99.90
32612;DHT22;19030;49.478;8.986;2023-02-08T03:52:57;-4.20;99.90
32612;DHT22;19030;49.478;8.986;2023-02-08T03:55:09;-4.20;99.90
32612;DHT22;19030;49.478;8.986;2023-02-08T03:57:16;-4.20;99.90
32612;DHT22;19030;49.478;8.986;2023-02-08T03:59:22;-4.20;99.90
32612;DHT22;19030;49.478;8.986;2023-02-08T04:01:49;-4.20;99.90
32612;DHT22;19030;49.478;8.986;2023-02-08T04:03:49;-4.20;99.90
32612;DHT22;19030;49.478;8.986;2023-02-08T04:05:53;-4.20;99.90
32612;DHT22;19030;49.478;8.986;2023-02-08T04:07:54;-4.20;99.90
32612;DHT22;19030;49.478;8.986;2023-02-08T04:09:54;-4.20;99.90
32612;DHT22;19030;49.478;8.986;2023-02-08T04:11:56;-4.20;99.90
32612;DHT22;19030;49.478;8.986;2023-02-08T04:13:56;-4.20;99.90
32612;DHT22;19030;49.478;8.986;2023-02-08T04:15:57;-4.30;99.90
32612;DHT22;19030;49.478;8.986;2023-02-08T04:17:57;-4.30;99.90
32612;DHT22;19030;49.478;8.986;2023-02-08T04:19:58;-4.30;99.90
32612;DHT22;19030;49.478;8.986;2023-02-08T04:21:59;-4.20;99.90
32612;DHT22;19030;49.478;8.986;2023-02-08T04:24:00;-4.30;99.90
32612;DHT22;19030;49.478;8.986;2023-02-08T04:26:01;-4.30;99.90
32612;DHT22;19030;49.478;8.986;2023-02-08T04:28:01;-4.30;99.90
32612;DHT22;19030;49.478;8.986;2023-02-08T04:30:02;-4.40;99.90
32612;DHT22;19030;49.478;8.986;2023-02-08T04:32:03;-4.40;99.90
32612;DHT22;19030;49.478;8.986;2023-02-08T04:34:04;-4.40;99.90
32612;DHT22;19030;49.478;8.986;2023-02-08T04:36:05;-4.40;99.90
32612;DHT22;19030;49.478;8.986;2023-02-08T04:38:05;-4.40;99.90
32612;DHT22;19030;49.478;8.986;2023-02-08T04:40:06;-4.40;99.90
32612;DHT22;19030;49.478;8.986;2023-02-08T04:42:07;-4.40;99.90
32612;DHT22;19030;49.478;8.986;2023-02-08T04:44:08;-4.40;99.90
32612;DHT22;19030;49.478;8.986;2023-02-08T04:46:09;-4.40;99.90
32612;DHT22;19030;49.478;8.986;2023-02-08T04:48:09;-4.50;99.90
32612;DHT22;19030;49.478;8.986;2023-02-08T04:50:10;-4.50;99.90
32612;DHT22;19030;49.478;8.986;2023-02-08T04:52:10;-4.50;99.90
32612;DHT22;19030;49.478;8.986;2023-02-08T04:54:11;-4.40;99.90
32612;DHT22;19030;49.478;8.986;2023-02-08T04:56:11;-4.40;99.90
32612;DHT22;19030;49.478;8.986;2023-02-08T04:58:12;-4.50;99.90
32612;DHT22;19030;49.478;8.986;2023-02-08T05:00:13;-4.50;99.90
32612;DHT22;19030;49.478;8.986;2023-02-08T05:02:13;-4.50;99.90
32612;DHT22;19030;49.478;8.986;2023-02-08T05:04:14;-4.50;99.90
32612;DHT22;19030;49.478;8.986;2023-02-08T05:06:14;-4.50;99.90
32612;DHT22;19030;49.478;8.986;2023-02-08T05:08:15;-4.50;99.90
32612;DHT22;19030;49.478;8.986;2023-02-08T05:10:16;-4.50;99.90
32612;DHT22;19030;49.478;8.986;2023-02-08T05:12:17;-4.40;99.90
32612;DHT22;19030;49.478;8.986;2023-02-08T05:14:17;-4.50;99.90
32612;DHT22;19030;49.478;8.986;2023-02-08T05:16:18;-4.50;99.90
32612;DHT22;19030;49.478;8.986;2023-02-08T05:18:18;-4.40;99.90
32612;DHT22;19030;49.478;8.986;2023-02-08T05:20:19;-4.40;99.90
32612;DHT22;19030;49.478;8.986;2023-02-08T05:22:20;-4.50;99.90
32612;DHT22;19030;49.478;8.986;2023-02-08T05:24:21;-4.40;99.90
32612;DHT22;19030;49.478;8.986;2023-02-08T05:26:22;-4.40;99.90
32612;DHT22;19030;49.478;8.986;2023-02-08T05:28:22;-4.40;99.90
32612;DHT22;19030;49.478;8.986;2023-02-08T05:30:23;-4.50;99.90
32612;DHT22;19030;49.478;8.986;2023-02-08T05:32:23;-4.50;99.90
32612;DHT22;19030;49.478;8.986;2023-02-08T05:34:24;-4.50;99.90
32612;DHT22;19030;49.478;8.986;2023-02-08T05:36:24;-4.50;99.90
32612;DHT22;19030;49.478;8.986;2023-02-08T05:38:25;-4.50;99.90
32612;DHT22;19030;49.478;8.986;2023-02-08T05:40:25;-4.50;99.90
32612;DHT22;19030;49.478;8.986;2023-02-08T05:42:26;-4.60;99.90
32612;DHT22;19030;49.478;8.986;2023-02-08T05:44:26;-4.50;99.90
32612;DHT22;19030;49.478;8.986;2023-02-08T05:46:27;-4.50;99.90
32612;DHT22;19030;49.478;8.986;2023-02-08T05:48:29;-4.60;99.90
32612;DHT22;19030;49.478;8.986;2023-02-08T05:50:30;-4.60;99.90
32612;DHT22;19030;49.478;8.986;2023-02-08T05:52:31;-4.60;99.90
32612;DHT22;19030;49.478;8.986;2023-02-08T05:54:32;-4.60;99.90
32612;DHT22;19030;49.478;8.986;2023-02-08T05:56:32;-4.60;99.90
32612;DHT22;19030;49.478;8.986;2023-02-08T05:58:34;-4.60;99.90
32612;DHT22;19030;49.478;8.986;2023-02-08T06:00:34;-4.60;99.90
32612;DHT22;19030;49.478;8.986;2023-02-08T06:02:35;-4.60;99.90
32612;DHT22;19030;49.478;8.986;2023-02-08T06:04:36;-4.60;99.90
32612;DHT22;19030;49.478;8.986;2023-02-08T06:06:37;-4.60;99.90
32612;DHT22;19030;49.478;8.986;2023-02-08T06:08:38;-4.60;99.90
32612;DHT22;19030;49.478;8.986;2023-02-08T06:10:39;-4.60;99.90
32612;DHT22;19030;49.478;8.986;2023-02-08T06:12:39;-4.60;99.90
32612;DHT22;19030;49.478;8.986;2023-02-08T06:14:40;-4.60;99.90
32612;DHT22;19030;49.478;8.986;2023-02-08T06:16:40;-4.60;99.90
32612;DHT22;19030;49.478;8.986;2023-02-08T06:18:41;-4.60;99.90
32612;DHT22;19030;49.478;8.986;2023-02-08T06:20:41;-4.60;99.90
32612;DHT22;19030;49.478;8.986;2023-02-08T06:22:42;-4.60;99.90
32612;DHT22;19030;49.478;8.986;2023-02-08T06:24:42;-4.60;99.90
32612;DHT22;19030;49.478;8.986;2023-02-08T06:26:43;-4.60;99.90
32612;DHT22;19030;49.478;8.986;2023-02-08T06:28:44;-4.60;99.90
32612;DHT22;19030;49.478;8.986;2023-02-08T06:30:44;-4.60;99.90
32612;DHT22;19030;49.478;8.986;2023-02-08T06:32:45;-4.50;99.90
32612;DHT22;19030;49.478;8.986;2023-02-08T06:34:46;-4.50;99.90
32612;DHT22;19030;49.478;8.986;2023-02-08T06:36:49;-4.60;99.90
32612;DHT22;19030;49.478;8.986;2023-02-08T06:38:50;-4.60;99.90
32612;DHT22;19030;49.478;8.986;2023-02-08T06:40:51;-4.60;99.90
32612;DHT22;19030;49.478;8.986;2023-02-08T06:42:51;-4.60;99.90
32612;DHT22;19030;49.478;8.986;2023-02-08T06:44:52;-4.60;99.90
32612;DHT22;19030;49.478;8.986;2023-02-08T06:46:55;-4.60;99.90
32612;DHT22;19030;49.478;8.986;2023-02-08T06:48:55;-4.60;99.90
32612;DHT22;19030;49.478;8.986;2023-02-08T06:50:57;-4.60;99.90
32612;DHT22;19030;49.478;8.986;2023-02-08T06:52:57;-4.60;99.90
32612;DHT22;19030;49.478;8.986;2023-02-08T06:54:58;-4.60;99.90
32612;DHT22;19030;49.478;8.986;2023-02-08T06:56:59;-4.50;99.90
32612;DHT22;19030;49.478;8.986;2023-02-08T06:58:59;-4.50;99.90
32612;DHT22;19030;49.478;8.986;2023-02-08T07:01:00;-4.40;99.90
32612;DHT22;19030;49.478;8.986;2023-02-08T07:03:01;-4.40;99.90
32612;DHT22;19030;49.478;8.986;2023-02-08T07:05:02;-4.40;99.90
32612;DHT22;19030;49.478;8.986;2023-02-08T07:07:03;-4.40;99.90
32612;DHT22;19030;49.478;8.986;2023-02-08T07:09:03;-4.40;99.90
32612;DHT22;19030;49.478;8.986;2023-02-08T07:11:13;-4.40;99.90
32612;DHT22;19030;49.478;8.986;2023-02-08T07:13:14;-4.30;99.90
32612;DHT22;19030;49.478;8.986;2023-02-08T07:15:15;-4.30;99.90
32612;DHT22;19030;49.478;8.986;2023-02-08T07:17:16;-4.30;99.90
32612;DHT22;19030;49.478;8.986;2023-02-08T07:19:16;-4.30;99.90
32612;DHT22;19030;49.478;8.986;2023-02-08T07:21:17;-4.20;99.90
32612;DHT22;19030;49.478;8.986;2023-02-08T07:23:17;-4.20;99.90
32612;DHT22;19030;49.478;8.986;2023-02-08T07:25:18;-4.20;99.90
32612;DHT22;19030;49.478;8.986;2023-02-08T07:27:18;-4.10;99.90
32612;DHT22;19030;49.478;8.986;2023-02-08T07:29:19;-4.00;99.90
32612;DHT22;19030;49.478;8.986;2023-02-08T07:31:20;-4.00;99.90
32612;DHT22;19030;49.478;8.986;2023-02-08T07:33:21;-3.90;99.90
32612;DHT22;19030;49.478;8.986;2023-02-08T07:35:22;-3.90;99.90
32612;DHT22;19030;49.478;8.986;2023-02-08T07:37:22;-3.80;99.90
32612;DHT22;19030;49.478;8.986;2023-02-08T07:39:23;-3.70;99.90
32612;DHT22;19030;49.478;8.986;2023-02-08T07:41:24;-3.60;99.90
32612;DHT22;19030;49.478;8.986;2023-02-08T07:43:25;-3.50;99.90
32612;DHT22;19030;49.478;8.986;2023-02-08T07:45:31;-3.50;99.90
32612;DHT22;19030;49.478;8.986;2023-02-08T07:47:32;-3.20;99.90
32612;DHT22;19030;49.478;8.986;2023-02-08T07:49:33;-2.70;99.90
32612;DHT22;19030;49.478;8.986;2023-02-08T07:51:34;-2.30;99.90
32612;DHT22;19030;49.478;8.986;2023-02-08T07:53:35;-1.70;99.90
32612;DHT22;19030;49.478;8.986;2023-02-08T07:55:35;-1.30;99.90
32612;DHT22;19030;49.478;8.986;2023-02-08T07:57:36;-0.80;99.90
32612;DHT22;19030;49.478;8.986;2023-02-08T07:59:36;-0.50;99.90
32612;DHT22;19030;49.478;8.986;2023-02-08T08:01:37;-0.10;99.90
32612;DHT22;19030;49.478;8.986;2023-02-08T08:03:38;0.20;99.90
32612;DHT22;19030;49.478;8.986;2023-02-08T08:05:41;0.50;99.90
32612;DHT22;19030;49.478;8.986;2023-02-08T08:07:42;0.90;99.90
32612;DHT22;19030;49.478;8.986;2023-02-08T08:09:42;1.20;99.90
32612;DHT22;19030;49.478;8.986;2023-02-08T08:11:43;1.50;99.90
32612;DHT22;19030;49.478;8.986;2023-02-08T08:13:44;1.70;99.90
32612;DHT22;19030;49.478;8.986;2023-02-08T08:15:45;1.80;99.90
32612;DHT22;19030;49.478;8.986;2023-02-08T08:17:46;1.90;99.90
32612;DHT22;19030;49.478;8.986;2023-02-08T08:19:47;2.00;99.90
32612;DHT22;19030;49.478;8.986;2023-02-08T08:21:47;2.20;99.90
32612;DHT22;19030;49.478;8.986;2023-02-08T08:23:49;2.20;98.50
32612;DHT22;19030;49.478;8.986;2023-02-08T08:25:50;2.40;99.10
32612;DHT22;19030;49.478;8.986;2023-02-08T08:27:51;2.70;97.90
32612;DHT22;19030;49.478;8.986;2023-02-08T08:29:51;2.80;95.40
32612;DHT22;19030;49.478;8.986;2023-02-08T08:31:52;2.80;92.40
32612;DHT22;19030;49.478;8.986;2023-02-08T08:33:54;2.80;92.70
32612;DHT22;19030;49.478;8.986;2023-02-08T08:35:55;3.10;92.20
32612;DHT22;19030;49.478;8.986;2023-02-08T08:37:55;3.10;91.00
32612;DHT22;19030;49.478;8.986;2023-02-08T08:39:56;3.20;91.60
32612;DHT22;19030;49.478;8.986;2023-02-08T08:41:59;3.60;88.60
32612;DHT22;19030;49.478;8.986;2023-02-08T08:44:00;3.80;90.90
32612;DHT22;19030;49.478;8.986;2023-02-08T08:46:01;4.10;91.20
32612;DHT22;19030;49.478;8.986;2023-02-08T08:48:05;4.50;87.90
32612;DHT22;19030;49.478;8.986;2023-02-08T08:50:05;4.60;81.20
32612;DHT22;19030;49.478;8.986;2023-02-08T08:52:06;5.10;80.90
32612;DHT22;19030;49.478;8.986;2023-02-08T08:54:07;5.80;79.70
32612;DHT22;19030;49.478;8.986;2023-02-08T08:56:08;6.80;76.20
32612;DHT22;19030;49.478;8.986;2023-02-08T08:58:08;7.80;70.50
32612;DHT22;19030;49.478;8.986;2023-02-08T09:00:09;8.80;63.10
32612;DHT22;19030;49.478;8.986;2023-02-08T09:02:13;10.40;56.20
32612;DHT22;19030;49.478;8.986;2023-02-08T09:04:14;11.80;48.30
32612;DHT22;19030;49.478;8.986;2023-02-08T09:06:15;13.00;45.80
32612;DHT22;19030;49.478;8.986;2023-02-08T09:08:16;14.60;41.80
32612;DHT22;19030;49.478;8.986;2023-02-08T09:10:17;15.40;38.80
32612;DHT22;19030;49.478;8.986;2023-02-08T09:12:17;16.30;36.20
32612;DHT22;19030;49.478;8.986;2023-02-08T09:14:18;17.30;33.10
32612;DHT22;19030;49.478;8.986;2023-02-08T09:16:18;17.60;31.40
32612;DHT22;19030;49.478;8.986;2023-02-08T09:18:19;17.70;31.20
32612;DHT22;19030;49.478;8.986;2023-02-08T09:20:20;17.80;31.40
32612;DHT22;19030;49.478;8.986;2023-02-08T09:22:21;18.00;29.70
32612;DHT22;19030;49.478;8.986;2023-02-08T09:24:21;18.70;29.20
32612;DHT22;19030;49.478;8.986;2023-02-08T09:26:22;19.20;29.40
32612;DHT22;19030;49.478;8.986;2023-02-08T09:28:24;19.70;28.00
32612;DHT22;19030;49.478;8.986;2023-02-08T09:30:25;19.80;27.70
32612;DHT22;19030;49.478;8.986;2023-02-08T09:32:26;20.30;27.20
32612;DHT22;19030;49.478;8.986;2023-02-08T09:34:26;20.70;27.20
32612;DHT22;19030;49.478;8.986;2023-02-08T09:36:31;20.70;27.00
32612;DHT22;19030;49.478;8.986;2023-02-08T09:38:32;20.50;26.80
32612;DHT22;19030;49.478;8.986;2023-02-08T09:40:41;20.60;26.90
32612;DHT22;19030;49.478;8.986;2023-02-08T09:42:52;20.90;26.50
32612;DHT22;19030;49.478;8.986;2023-02-08T09:45:23;21.40;25.80
32612;DHT22;19030;49.478;8.986;2023-02-08T09:47:35;22.10;25.10
32612;DHT22;19030;49.478;8.986;2023-02-08T09:49:41;22.50;24.00
32612;DHT22;19030;49.478;8.986;2023-02-08T09:51:51;22.60;23.10
32612;DHT22;19030;49.478;8.986;2023-02-08T09:53:57;22.60;23.80
32612;DHT22;19030;49.478;8.986;2023-02-08T09:56:01;22.50;23.20
32612;DHT22;19030;49.478;8.986;2023-02-08T09:58:31;23.10;23.00
32612;DHT22;19030;49.478;8.986;2023-02-08T10:00:38;23.30;22.50
32612;DHT22;19030;49.478;8.986;2023-02-08T10:02:40;23.70;22.40
32612;DHT22;19030;49.478;8.986;2023-02-08T10:04:54;24.50;21.70
32612;DHT22;19030;49.478;8.986;2023-02-08T10:06:56;24.90;20.40
32612;DHT22;19030;49.478;8.986;2023-02-08T10:09:00;24.30;20.80
32612;DHT22;19030;49.478;8.986;2023-02-08T10:11:27;23.10;21.60
32612;DHT22;19030;49.478;8.986;2023-02-08T10:13:46;22.70;22.30
32612;DHT22;19030;49.478;8.986;2023-02-08T10:21:00;24.60;20.50
32612;DHT22;19030;49.478;8.986;2023-02-08T10:28:01;24.00;20.10
32612;DHT22;19030;49.478;8.986;2023-02-08T10:30:29;22.90;20.90
32612;DHT22;19030;49.478;8.986;2023-02-08T10:34:41;22.80;21.10
32612;DHT22;19030;49.478;8.986;2023-02-08T10:36:43;22.90;21.00
32612;DHT22;19030;49.478;8.986;2023-02-08T10:38:44;22.60;21.40
32612;DHT22;19030;49.478;8.986;2023-02-08T10:40:49;22.70;21.30
32612;DHT22;19030;49.478;8.986;2023-02-08T10:45:28;22.20;21.10
32612;DHT22;19030;49.478;8.986;2023-02-08T10:47:51;22.10;21.80
32612;DHT22;19030;49.478;8.986;2023-02-08T10:50:24;23.10;21.30
32612;DHT22;19030;49.478;8.986;2023-02-08T10:52:28;23.50;20.60
32612;DHT22;19030;49.478;8.986;2023-02-08T10:54:28;23.60;20.90
32612;DHT22;19030;49.478;8.986;2023-02-08T10:58:29;23.30;20.10
32612;DHT22;19030;49.478;8.986;2023-02-08T11:00:33;22.60;21.10
32612;DHT22;19030;49.478;8.986;2023-02-08T11:02:40;22.60;20.80
32612;DHT22;19030;49.478;8.986;2023-02-08T11:07:26;23.40;21.10
32612;DHT22;19030;49.478;8.986;2023-02-08T11:09:31;23.20;20.50
32612;DHT22;19030;49.478;8.986;2023-02-08T11:11:39;23.20;20.30
32612;DHT22;19030;49.478;8.986;2023-02-08T11:13:47;22.60;20.30
32612;DHT22;19030;49.478;8.986;2023-02-08T11:15:58;22.30;20.70
32612;DHT22;19030;49.478;8.986;2023-02-08T11:18:00;22.20;21.60
32612;DHT22;19030;49.478;8.986;2023-02-08T11:20:01;22.20;21.70
32612;DHT22;19030;49.478;8.986;2023-02-08T11:22:02;22.20;21.20
32612;DHT22;19030;49.478;8.986;2023-02-08T11:28:30;23.20;20.70
32612;DHT22;19030;49.478;8.986;2023-02-08T11:30:31;23.00;20.60
32612;DHT22;19030;49.478;8.986;2023-02-08T11:32:32;23.00;20.80
32612;DHT22;19030;49.478;8.986;2023-02-08T11:34:36;23.10;21.00
32612;DHT22;19030;49.478;8.986;2023-02-08T11:36:45;22.60;20.80
32612;DHT22;19030;49.478;8.986;2023-02-08T11:38:46;22.80;20.70
32612;DHT22;19030;49.478;8.986;2023-02-08T11:40:46;22.40;20.70
32612;DHT22;19030;49.478;8.986;2023-02-08T11:42:47;22.10;21.90
32612;DHT22;19030;49.478;8.986;2023-02-08T11:44:48;23.20;21.20
32612;DHT22;19030;49.478;8.986;2023-02-08T11:46:50;23.60;20.80
32612;DHT22;19030;49.478;8.986;2023-02-08T11:48:52;23.50;21.00
32612;DHT22;19030;49.478;8.986;2023-02-08T11:50:56;23.60;20.50
32612;DHT22;19030;49.478;8.986;2023-02-08T11:53:05;23.00;21.00
32612;DHT22;19030;49.478;8.986;2023-02-08T11:55:26;22.70;21.10
32612;DHT22;19030;49.478;8.986;2023-02-08T11:57:26;22.70;21.40
32612;DHT22;19030;49.478;8.986;2023-02-08T11:59:27;22.10;21.80
32612;DHT22;19030;49.478;8.986;2023-02-08T12:01:37;21.90;21.90
32612;DHT22;19030;49.478;8.986;2023-02-08T12:03:39;22.10;22.10
32612;DHT22;19030;49.478;8.986;2023-02-08T12:10:41;21.70;22.20
32612;DHT22;19030;49.478;8.986;2023-02-08T12:15:25;21.80;22.40
32612;DHT22;19030;49.478;8.986;2023-02-08T12:19:51;22.10;22.50
32612;DHT22;19030;49.478;8.986;2023-02-08T12:22:06;22.00;22.90
32612;DHT22;19030;49.478;8.986;2023-02-08T12:36:08;21.50;22.90
32612;DHT22;19030;49.478;8.986;2023-02-08T12:43:18;23.20;22.50
32612;DHT22;19030;49.478;8.986;2023-02-08T12:48:15;25.10;21.10
32612;DHT22;19030;49.478;8.986;2023-02-08T12:50:43;25.30;20.50
32612;DHT22;19030;49.478;8.986;2023-02-08T12:52:50;24.80;20.60
32612;DHT22;19030;49.478;8.986;2023-02-08T12:55:00;24.90;21.00
32612;DHT22;19030;49.478;8.986;2023-02-08T12:57:02;25.10;20.60
32612;DHT22;19030;49.478;8.986;2023-02-08T12:59:05;24.40;20.80
32612;DHT22;19030;49.478;8.986;2023-02-08T13:01:14;23.30;21.20
32612;DHT22;19030;49.478;8.986;2023-02-08T13:03:34;23.00;21.60
32612;DHT22;19030;49.478;8.986;2023-02-08T13:05:44;22.30;22.50
32612;DHT22;19030;49.478;8.986;2023-02-08T13:07:47;21.50;23.00
32612;DHT22;19030;49.478;8.986;2023-02-08T13:10:21;21.30;23.10
32612;DHT22;19030;49.478;8.986;2023-02-08T13:12:30;21.60;22.90
32612;DHT22;19030;49.478;8.986;2023-02-08T13:14:51;21.50;23.00
32612;DHT22;19030;49.478;8.986;2023-02-08T13:16:58;21.80;23.40
32612;DHT22;19030;49.478;8.986;2023-02-08T13:19:22;21.90;22.80
32612;DHT22;19030;49.478;8.986;2023-02-08T13:21:28;21.70;22.50
32612;DHT22;19030;49.478;8.986;2023-02-08T13:23:46;21.30;23.00
32612;DHT22;19030;49.478;8.986;2023-02-08T13:25:48;21.50;22.90
32612;DHT22;19030;49.478;8.986;2023-02-08T13:27:50;21.80;23.20
32612;DHT22;19030;49.478;8.986;2023-02-08T13:29:51;21.90;23.30
32612;DHT22;19030;49.478;8.986;2023-02-08T13:31:57;22.20;23.30
32612;DHT22;19030;49.478;8.986;2023-02-08T13:36:24;21.70;24.00
32612;DHT22;19030;49.478;8.986;2023-02-08T13:40:33;21.50;23.90
32612;DHT22;19030;49.478;8.986;2023-02-08T13:42:48;21.60;24.00
32612;DHT22;19030;49.478;8.986;2023-02-08T13:44:52;21.30;24.30
32612;DHT22;19030;49.478;8.986;2023-02-08T13:46:54;21.60;24.90
32612;DHT22;19030;49.478;8.986;2023-02-08T13:48:57;21.80;23.90
32612;DHT22;19030;49.478;8.986;2023-02-08T13:50:59;21.70;23.70
32612;DHT22;19030;49.478;8.986;2023-02-08T13:53:03;20.90;24.10
32612;DHT22;19030;49.478;8.986;2023-02-08T13:57:54;20.30;24.90
32612;DHT22;19030;49.478;8.986;2023-02-08T14:00:23;21.00;24.70
32612;DHT22;19030;49.478;8.986;2023-02-08T14:02:26;21.30;23.80
32612;DHT22;19030;49.478;8.986;2023-02-08T14:04:32;21.20;24.40
32612;DHT22;19030;49.478;8.986;2023-02-08T14:06:36;21.50;24.00
32612;DHT22;19030;49.478;8.986;2023-02-08T14:08:45;21.40;23.60
32612;DHT22;19030;49.478;8.986;2023-02-08T14:11:15;20.80;23.70
32612;DHT22;19030;49.478;8.986;2023-02-08T14:13:26;20.30;24.60
32612;DHT22;19030;49.478;8.986;2023-02-08T14:15:51;20.00;24.40
32612;DHT22;19030;49.478;8.986;2023-02-08T14:18:23;20.10;24.30
32612;DHT22;19030;49.478;8.986;2023-02-08T14:20:37;19.70;24.70
32612;DHT22;19030;49.478;8.986;2023-02-08T14:22:48;19.10;25.40
32612;DHT22;19030;49.478;8.986;2023-02-08T14:25:02;19.00;26.00
32612;DHT22;19030;49.478;8.986;2023-02-08T14:29:23;19.20;25.80
32612;DHT22;19030;49.478;8.986;2023-02-08T14:31:41;19.40;26.30
32612;DHT22;19030;49.478;8.986;2023-02-08T14:33:50;19.70;25.60
32612;DHT22;19030;49.478;8.986;2023-02-08T14:36:01;20.00;25.20
32612;DHT22;19030;49.478;8.986;2023-02-08T14:42:58;15.10;29.20
32612;DHT22;19030;49.478;8.986;2023-02-08T14:45:00;13.20;31.70